Time;durP1;ratioP1;P1;durP2;ratioP2;P2;SDS_P1;SDS_P2;PMS_P1;PMS_P2;Temp;Humidity;BMP_temperature;BMP_pressure;BME280_temperature;BME280_humidity;BME280_pressure;Samples;Min_cycle;Max_cycle;Signal;HPM_P1;HPM_P2
2023/02/21 02:15:18;;;;;;;30.08;15.43;;;8.10;92.30;;;;;;5042810;28;20037;-73
2023/02/21 02:17:47;;;;;;;31.92;17.27;;;8.10;92.30;;;;;;5042934;28;20036;-73
2023/02/21 02:20:18;;;;;;;29.80;16.05;;;8.10;92.20;;;;;;5044197;28;20524;-72
2023/02/21 02:23:04;;;;;;;27.85;16.58;;;8.10;92.30;;;;;;5043311;28;20122;-71
2023/02/21 02:25:38;;;;;;;27.30;15.20;;;8.10;92.40;;;;;;5024999;28;20029;-77
2023/02/21 02:28:35;;;;;;;26.67;15.10;;;8.10;92.30;;;;;;5043698;28;20029;-73
2023/02/21 02:31:38;;;;;;;28.00;15.57;;;8.10;92.30;;;;;;5000719;28;20045;-71
2023/02/21 02:34:07;;;;;;;33.15;17.45;;;8.10;92.20;;;;;;5003366;28;20026;-73
2023/02/21 02:36:50;;;;;;;33.47;16.73;;;8.10;92.30;;;;;;5002041;28;20050;-72
2023/02/21 02:39:38;;;;;;;37.53;17.50;;;8.10;92.30;;;;;;5002049;28;20022;-73
2023/02/21 02:42:25;;;;;;;38.05;18.75;;;8.10;92.20;;;;;;5001583;28;20061;-74
2023/02/21 02:44:58;;;;;;;38.00;18.48;;;8.10;92.30;;;;;;5002049;28;20160;-72
2023/02/21 02:47:33;;;;;;;40.97;19.02;;;8.10;92.30;;;;;;5000540;28;20133;-72
2023/02/21 02:50:00;;;;;;;44.92;18.42;;;8.10;92.30;;;;;;5004748;28;20026;-72
2023/02/21 02:52:26;;;;;;;44.00;20.33;;;8.10;92.30;;;;;;5002252;28;20046;-78
2023/02/21 02:55:23;;;;;;;38.97;19.70;;;8.10;92.30;;;;;;5001750;28;20594;-72
2023/02/21 02:57:50;;;;;;;39.22;18.02;;;8.10;92.30;;;;;;4990628;28;20041;-73
2023/02/21 03:00:17;;;;;;;42.85;19.67;;;8.10;92.30;;;;;;5005691;28;20556;-74
2023/02/21 03:03:02;;;;;;;36.58;17.70;;;8.10;92.40;;;;;;5003139;28;20073;-76
2023/02/21 03:05:42;;;;;;;45.00;20.35;;;8.10;92.30;;;;;;5002917;28;20030;-72
2023/02/21 03:08:13;;;;;;;48.13;20.30;;;8.10;92.30;;;;;;5004460;28;20021;-73
2023/02/21 03:10:45;;;;;;;40.80;19.27;;;8.10;92.30;;;;;;5001872;28;20046;-74
2023/02/21 03:13:28;;;;;;;45.25;20.25;;;8.10;92.30;;;;;;5002747;28;20049;-73
2023/02/21 03:15:59;;;;;;;47.47;20.65;;;8.10;92.30;;;;;;5002466;28;20034;-77
2023/02/21 03:18:43;;;;;;;51.53;21.83;;;8.20;92.30;;;;;;5000435;28;20507;-72
2023/02/21 03:21:18;;;;;;;46.88;20.00;;;8.10;92.30;;;;;;5002249;28;20070;-72
2023/02/21 03:23:47;;;;;;;44.15;19.58;;;8.10;92.30;;;;;;5002149;28;20487;-72
2023/02/21 03:26:15;;;;;;;48.72;20.90;;;8.20;92.40;;;;;;5002082;28;20046;-72
2023/02/21 03:28:42;;;;;;;47.67;20.60;;;8.20;92.40;;;;;;5004900;28;20103;-71
2023/02/21 03:31:11;;;;;;;48.47;20.20;;;8.20;92.40;;;;;;5042474;28;20036;-77
2023/02/21 03:33:37;;;;;;;52.47;21.80;;;8.20;92.50;;;;;;5043126;28;20031;-71
2023/02/21 03:36:04;;;;;;;52.45;22.08;;;8.20;92.40;;;;;;5042845;28;20049;-71
2023/02/21 03:38:30;;;;;;;45.65;19.40;;;8.20;92.40;;;;;;5042628;28;20093;-71
2023/02/21 03:40:56;;;;;;;46.22;18.33;;;8.20;92.40;;;;;;5024278;28;20488;-76
2023/02/21 03:43:22;;;;;;;42.72;17.98;;;8.30;92.50;;;;;;5042496;28;20029;-74
2023/02/21 03:45:48;;;;;;;38.05;17.77;;;8.20;92.30;;;;;;5040506;28;20228;-73
2023/02/21 03:48:14;;;;;;;38.53;17.52;;;8.20;92.30;;;;;;5041575;28;20037;-74
2023/02/21 03:50:39;;;;;;;39.95;17.60;;;8.30;92.30;;;;;;5041572;28;20315;-72
2023/02/21 03:53:05;;;;;;;40.20;17.23;;;8.20;92.40;;;;;;5028319;28;20028;-74
2023/02/21 03:55:31;;;;;;;39.30;17.35;;;8.30;92.40;;;;;;5039306;28;20666;-72
2023/02/21 03:57:56;;;;;;;42.47;18.00;;;8.30;92.40;;;;;;5040429;28;20101;-74
2023/02/21 04:00:22;;;;;;;46.55;19.25;;;8.30;92.40;;;;;;5040776;28;20029;-72
2023/02/21 04:02:48;;;;;;;42.88;17.98;;;8.30;92.30;;;;;;5041977;28;20040;-71
2023/02/21 04:05:13;;;;;;;49.40;19.58;;;8.30;92.40;;;;;;5041153;28;20037;-75
2023/02/21 04:07:39;;;;;;;42.50;17.83;;;8.30;92.30;;;;;;5042537;28;20045;-71
2023/02/21 04:10:05;;;;;;;41.53;18.50;;;8.30;92.40;;;;;;5041188;28;20033;-72
2023/02/21 04:12:30;;;;;;;38.75;16.83;;;8.30;92.40;;;;;;5041599;28;20056;-72
2023/02/21 04:14:57;;;;;;;38.65;17.27;;;8.30;92.30;;;;;;5041362;28;20591;-78
2023/02/21 04:17:23;;;;;;;38.15;16.73;;;8.20;92.20;;;;;;5040578;28;20056;-71
2023/02/21 04:19:49;;;;;;;40.90;17.92;;;8.20;92.30;;;;;;5041441;28;20021;-71
2023/02/21 04:22:15;;;;;;;36.30;16.98;;;8.20;92.30;;;;;;5039213;28;20484;-71
2023/02/21 04:24:41;;;;;;;37.90;16.90;;;8.20;92.30;;;;;;5043987;28;20029;-72
2023/02/21 04:27:07;;;;;;;39.38;17.08;;;8.30;92.30;;;;;;5022404;28;20045;-72
2023/02/21 04:29:33;;;;;;;34.95;16.60;;;8.30;92.30;;;;;;5041918;28;20045;-73
2023/02/21 04:31:58;;;;;;;33.35;15.15;;;8.20;92.30;;;;;;5040629;28;20110;-71
2023/02/21 04:34:24;;;;;;;32.63;15.30;;;8.30;92.30;;;;;;5042564;28;20033;-76
2023/02/21 04:36:50;;;;;;;30.77;13.90;;;8.30;92.30;;;;;;5040497;28;20068;-72
2023/02/21 04:39:16;;;;;;;30.67;14.38;;;8.30;92.30;;;;;;5024327;28;20025;-71
2023/02/21 04:41:41;;;;;;;32.30;15.02;;;8.30;92.30;;;;;;5040198;28;20461;-73
2023/02/21 04:44:07;;;;;;;29.50;14.73;;;8.30;92.30;;;;;;5042466;28;20033;-77
2023/02/21 04:46:33;;;;;;;29.48;13.55;;;8.30;92.30;;;;;;5041484;28;20188;-72
2023/02/21 04:48:59;;;;;;;30.08;13.93;;;8.30;92.30;;;;;;5037166;28;20029;-72
2023/02/21 04:51:25;;;;;;;32.33;13.93;;;8.30;92.30;;;;;;5040372;28;20490;-72
2023/02/21 04:53:52;;;;;;;31.98;14.13;;;8.30;92.30;;;;;;5025303;28;20022;-71
2023/02/21 04:56:20;;;;;;;34.20;16.13;;;8.20;92.30;;;;;;5041959;28;20788;-71
2023/02/21 04:58:45;;;;;;;35.20;15.00;;;8.20;92.30;;;;;;5040550;28;20110;-73
2023/02/21 05:01:12;;;;;;;33.25;15.07;;;8.20;92.40;;;;;;5041310;28;20778;-72
2023/02/21 05:03:38;;;;;;;36.70;15.55;;;8.30;92.40;;;;;;5023098;28;20029;-71
2023/02/21 05:06:04;;;;;;;37.35;16.45;;;8.30;92.40;;;;;;5039215;28;20378;-75
2023/02/21 05:08:30;;;;;;;34.28;15.15;;;8.30;92.40;;;;;;5041561;28;20401;-74
2023/02/21 05:10:55;;;;;;;38.03;16.77;;;8.30;92.40;;;;;;5040065;28;20032;-72
2023/02/21 05:13:21;;;;;;;35.63;16.73;;;8.40;92.40;;;;;;5040596;28;20032;-72
2023/02/21 05:15:48;;;;;;;33.53;16.77;;;8.30;92.30;;;;;;5040797;28;20025;-72
2023/02/21 05:18:14;;;;;;;37.85;16.55;;;8.30;92.30;;;;;;5038151;28;20106;-77
2023/02/21 05:20:39;;;;;;;36.70;16.83;;;8.40;92.30;;;;;;5040956;28;20025;-76
2023/02/21 05:23:05;;;;;;;34.65;15.65;;;8.30;92.20;;;;;;5039144;28;20044;-72
2023/02/21 05:25:30;;;;;;;39.03;17.20;;;8.30;92.20;;;;;;5023581;28;20036;-73
2023/02/21 05:27:56;;;;;;;40.22;18.13;;;8.30;92.30;;;;;;5040058;28;20040;-73
2023/02/21 05:30:22;;;;;;;41.00;17.90;;;8.40;92.20;;;;;;5042280;28;20048;-72
2023/02/21 05:32:48;;;;;;;42.10;17.50;;;8.30;92.20;;;;;;5039576;28;20136;-73
2023/02/21 05:35:16;;;;;;;38.67;17.65;;;8.30;92.20;;;;;;5041277;28;20040;-73
2023/02/21 05:37:42;;;;;;;43.05;18.95;;;8.30;92.10;;;;;;5029325;28;20053;-76
2023/02/21 05:40:11;;;;;;;43.65;18.20;;;8.30;92.20;;;;;;5024100;28;20055;-72
2023/02/21 05:42:37;;;;;;;44.13;18.48;;;8.30;92.20;;;;;;5039384;28;20033;-71
2023/02/21 05:45:05;;;;;;;44.80;19.92;;;8.30;92.20;;;;;;5015440;28;20350;-74
2023/02/21 05:47:33;;;;;;;50.53;20.35;;;8.30;92.20;;;;;;5024628;28;20531;-72
2023/02/21 05:49:59;;;;;;;52.78;22.23;;;8.30;92.20;;;;;;5041443;28;20025;-71
2023/02/21 05:52:26;;;;;;;46.55;18.63;;;8.30;92.20;;;;;;5041888;28;20029;-72
2023/02/21 05:54:51;;;;;;;51.60;20.08;;;8.30;92.20;;;;;;5042443;28;20029;-72
2023/02/21 05:57:19;;;;;;;51.50;20.10;;;8.30;92.20;;;;;;5040440;28;20583;-72
2023/02/21 05:59:47;;;;;;;49.05;19.80;;;8.30;92.20;;;;;;5022566;28;21297;-72
2023/02/21 06:02:13;;;;;;;52.65;20.95;;;8.30;92.10;;;;;;5041392;28;20048;-76
2023/02/21 06:04:39;;;;;;;52.80;21.13;;;8.30;92.20;;;;;;5039867;28;20025;-75
2023/02/21 06:07:05;;;;;;;50.63;22.08;;;8.30;92.20;;;;;;5040219;28;20198;-73
2023/02/21 06:09:30;;;;;;;50.15;20.92;;;8.30;92.10;;;;;;5040561;28;20032;-73
2023/02/21 06:11:56;;;;;;;52.10;19.58;;;8.30;92.20;;;;;;5023900;28;20033;-71
2023/02/21 06:14:23;;;;;;;53.50;21.00;;;8.30;92.10;;;;;;5021914;28;20396;-72
2023/02/21 06:16:48;;;;;;;53.05;21.70;;;8.40;92.20;;;;;;5020978;28;20538;-72
2023/02/21 06:19:15;;;;;;;53.75;21.27;;;8.30;92.10;;;;;;5023464;28;20519;-71
2023/02/21 06:21:42;;;;;;;55.33;21.70;;;8.30;92.20;;;;;;5040647;28;20037;-74
2023/02/21 06:24:09;;;;;;;54.13;22.10;;;8.30;92.10;;;;;;5040360;28;20040;-72
2023/02/21 06:26:36;;;;;;;52.45;20.50;;;8.30;92.10;;;;;;5020880;28;20067;-77
2023/02/21 06:29:05;;;;;;;48.92;19.45;;;8.30;92.10;;;;;;5024972;28;20052;-72
2023/02/21 06:31:31;;;;;;;49.47;20.35;;;8.30;92.00;;;;;;5042971;28;20116;-73
2023/02/21 06:33:57;;;;;;;51.30;21.23;;;8.30;92.10;;;;;;5042562;28;20337;-77
2023/02/21 06:36:25;;;;;;;55.50;23.13;;;8.30;91.90;;;;;;5045261;28;20044;-73
2023/02/21 06:38:54;;;;;;;53.78;22.70;;;8.30;92.00;;;;;;5043702;28;20492;-74
2023/02/21 06:41:23;;;;;;;53.25;23.92;;;8.30;91.90;;;;;;5044215;28;20029;-76
2023/02/21 06:43:49;;;;;;;49.30;22.55;;;8.20;91.90;;;;;;5044114;28;20082;-72
2023/02/21 06:46:19;;;;;;;47.58;21.00;;;8.30;92.00;;;;;;5043331;28;20047;-72
2023/02/21 06:48:45;;;;;;;48.53;22.20;;;8.20;91.80;;;;;;5043621;28;20116;-73
2023/02/21 06:51:13;;;;;;;47.05;22.83;;;8.20;91.80;;;;;;5046144;28;20112;-71
2023/02/21 06:53:39;;;;;;;45.63;22.08;;;8.20;91.80;;;;;;5046039;28;20024;-76
2023/02/21 06:56:06;;;;;;;46.40;22.17;;;8.20;91.70;;;;;;5049630;28;20041;-72
2023/02/21 06:58:31;;;;;;;39.95;20.58;;;8.20;91.50;;;;;;5028058;28;20039;-71
2023/02/21 07:00:57;;;;;;;42.13;21.75;;;8.10;91.60;;;;;;5044047;28;21583;-74
2023/02/21 07:03:23;;;;;;;45.08;22.65;;;8.10;91.60;;;;;;5043779;28;20674;-75
2023/02/21 07:05:48;;;;;;;44.05;22.15;;;8.20;91.70;;;;;;5041726;28;20045;-76
2023/02/21 07:08:14;;;;;;;43.85;22.02;;;8.20;91.60;;;;;;5044124;28;20025;-72
2023/02/21 07:10:40;;;;;;;42.28;22.48;;;8.20;91.70;;;;;;5040969;28;20029;-74
2023/02/21 07:13:05;;;;;;;48.83;24.48;;;8.30;91.60;;;;;;5042424;28;20108;-77
2023/02/21 07:15:31;;;;;;;41.50;21.60;;;8.30;91.60;;;;;;5023684;28;20029;-72
2023/02/21 07:17:57;;;;;;;45.70;23.77;;;8.30;91.70;;;;;;5042987;28;20036;-76
2023/02/21 07:20:23;;;;;;;44.88;22.38;;;8.30;91.50;;;;;;5043919;28;20454;-74
2023/02/21 07:22:48;;;;;;;39.55;19.20;;;8.30;91.50;;;;;;5026366;28;20094;-71
2023/02/21 07:25:21;;;;;;;31.40;15.25;;;8.30;91.20;;;;;;5040860;28;20029;-71
2023/02/21 07:27:48;;;;;;;30.05;15.18;;;8.40;91.30;;;;;;5044367;28;20041;-72
2023/02/21 07:30:15;;;;;;;29.42;15.40;;;8.30;91.10;;;;;;5042746;28;20059;-72
2023/02/21 07:32:41;;;;;;;28.27;14.35;;;8.30;91.00;;;;;;5026024;28;20041;-71
2023/02/21 07:35:07;;;;;;;29.23;14.93;;;8.30;91.00;;;;;;5044899;28;20033;-75
2023/02/21 07:37:33;;;;;;;22.10;11.85;;;8.30;90.90;;;;;;5038350;28;20509;-72
2023/02/21 07:39:59;;;;;;;18.77;10.05;;;8.20;90.70;;;;;;5038953;28;20032;-73
2023/02/21 07:42:24;;;;;;;22.58;10.85;;;8.20;90.80;;;;;;5040241;28;20036;-72
2023/02/21 07:44:57;;;;;;;19.65;10.65;;;8.20;90.70;;;;;;5040355;28;20025;-73
2023/02/21 07:47:26;;;;;;;24.38;11.45;;;8.20;90.70;;;;;;5019343;28;20045;-73
2023/02/21 07:49:53;;;;;;;21.58;11.98;;;8.30;90.60;;;;;;5034398;28;20021;-72
2023/02/21 07:52:19;;;;;;;26.85;12.32;;;8.20;90.60;;;;;;5035466;28;20702;-75
2023/02/21 07:54:45;;;;;;;24.35;12.07;;;8.30;90.50;;;;;;5034953;28;20272;-72
2023/02/21 07:57:11;;;;;;;24.33;12.60;;;8.30;90.30;;;;;;5021117;28;20029;-72
2023/02/21 07:59:37;;;;;;;26.40;13.48;;;8.30;90.40;;;;;;5037505;28;20108;-74
2023/02/21 08:02:04;;;;;;;28.02;14.57;;;8.40;90.40;;;;;;5033918;28;20474;-76
2023/02/21 08:04:29;;;;;;;30.85;15.23;;;8.40;90.60;;;;;;5038050;28;20025;-72
2023/02/21 08:07:00;;;;;;;29.23;16.45;;;8.40;90.60;;;;;;5019380;28;20099;-72
2023/02/21 08:09:26;;;;;;;32.97;16.27;;;8.50;90.50;;;;;;5036408;28;20064;-74
2023/02/21 08:11:51;;;;;;;32.67;15.32;;;8.50;90.50;;;;;;5037698;28;20232;-72
2023/02/21 08:14:17;;;;;;;36.47;17.95;;;8.50;90.50;;;;;;5037613;28;20032;-73
2023/02/21 08:16:43;;;;;;;36.67;17.85;;;8.60;90.50;;;;;;5037382;28;20056;-75
2023/02/21 08:19:08;;;;;;;35.55;18.65;;;8.60;90.40;;;;;;5036128;28;20501;-71
2023/02/21 08:21:34;;;;;;;36.90;18.52;;;8.60;90.40;;;;;;5032767;28;20033;-76
2023/02/21 08:24:00;;;;;;;37.88;18.48;;;8.60;90.40;;;;;;5034024;28;20113;-77
2023/02/21 08:26:26;;;;;;;35.08;18.17;;;8.60;90.30;;;;;;5034961;28;20576;-75
2023/02/21 08:28:51;;;;;;;38.00;18.70;;;8.70;90.10;;;;;;5031017;28;20052;-74
2023/02/21 08:31:17;;;;;;;37.28;19.50;;;8.70;90.10;;;;;;5032633;28;20111;-75
2023/02/21 08:33:44;;;;;;;33.90;18.50;;;8.70;89.90;;;;;;5038467;28;20424;-76
2023/02/21 08:36:10;;;;;;;35.28;19.73;;;8.70;89.70;;;;;;5021756;28;20155;-75
2023/02/21 08:38:36;;;;;;;37.08;19.92;;;8.80;89.80;;;;;;5021371;28;20032;-77
2023/02/21 08:41:03;;;;;;;36.97;20.73;;;8.80;89.70;;;;;;5036825;28;20029;-75
2023/02/21 08:43:28;;;;;;;34.30;19.67;;;8.80;89.60;;;;;;5020823;28;20029;-74
2023/02/21 08:45:54;;;;;;;28.88;18.23;;;8.90;89.60;;;;;;5036712;28;20051;-75
2023/02/21 08:48:20;;;;;;;31.33;19.17;;;8.80;89.40;;;;;;5037420;28;20029;-74
2023/02/21 08:50:45;;;;;;;28.60;18.52;;;8.80;89.20;;;;;;5040337;28;20044;-74
2023/02/21 08:53:13;;;;;;;27.75;17.83;;;8.70;88.90;;;;;;5038804;28;20029;-73
2023/02/21 08:55:38;;;;;;;27.38;17.38;;;8.80;89.00;;;;;;5040547;28;20032;-73
2023/02/21 08:58:05;;;;;;;27.08;16.25;;;8.80;89.00;;;;;;5039642;28;20032;-74
2023/02/21 09:00:31;;;;;;;27.67;15.77;;;8.80;88.90;;;;;;5022439;28;20082;-75
2023/02/21 09:02:58;;;;;;;23.40;15.20;;;8.80;88.80;;;;;;5038032;28;20036;-74
2023/02/21 09:05:30;;;;;;;23.20;14.27;;;8.80;88.60;;;;;;5037309;28;20029;-74
2023/02/21 09:07:58;;;;;;;22.10;13.95;;;8.80;88.50;;;;;;5042598;28;20639;-75
2023/02/21 09:10:29;;;;;;;20.13;13.60;;;8.80;88.10;;;;;;5039843;28;20021;-74
2023/02/21 09:12:55;;;;;;;19.98;13.13;;;8.90;88.20;;;;;;5041243;28;20572;-75
2023/02/21 09:15:20;;;;;;;18.15;12.45;;;8.90;88.00;;;;;;5039960;28;20033;-74
2023/02/21 09:17:48;;;;;;;17.00;11.75;;;8.90;87.50;;;;;;5020675;28;20445;-74
2023/02/21 09:20:19;;;;;;;20.02;12.10;;;8.90;87.20;;;;;;5038498;28;20125;-74
2023/02/21 09:22:46;;;;;;;19.15;12.27;;;8.90;86.70;;;;;;5037790;28;20033;-75
2023/02/21 09:25:13;;;;;;;15.77;10.18;;;9.00;86.80;;;;;;5039070;28;20032;-74
2023/02/21 09:27:39;;;;;;;15.40;9.82;;;9.00;86.60;;;;;;5038863;28;20056;-74
2023/02/21 09:30:11;;;;;;;16.65;9.95;;;9.00;86.70;;;;;;5037489;28;20186;-75
2023/02/21 09:32:38;;;;;;;17.40;11.50;;;8.90;86.70;;;;;;5035846;28;20116;-74
2023/02/21 09:35:05;;;;;;;18.98;12.35;;;9.00;86.70;;;;;;5018678;28;20040;-75
2023/02/21 09:37:31;;;;;;;19.38;12.07;;;9.00;86.90;;;;;;5022210;28;20041;-74
2023/02/21 09:39:57;;;;;;;18.30;12.27;;;9.00;87.00;;;;;;5038189;28;20021;-75
2023/02/21 09:42:28;;;;;;;22.88;12.60;;;9.10;86.80;;;;;;5019877;28;20040;-73
2023/02/21 09:44:54;;;;;;;20.00;12.60;;;9.00;86.80;;;;;;5038589;28;20501;-73
2023/02/21 09:47:33;;;;;;;20.48;12.93;;;9.10;86.70;;;;;;5032195;28;20053;-75
2023/02/21 09:50:05;;;;;;;21.88;14.00;;;9.00;86.80;;;;;;5034617;28;20037;-73
2023/02/21 09:52:35;;;;;;;20.63;13.05;;;9.00;86.80;;;;;;5038459;28;20489;-73
2023/02/21 09:55:23;;;;;;;23.35;14.65;;;9.10;87.00;;;;;;5038917;28;20163;-76
2023/02/21 09:57:49;;;;;;;24.60;14.35;;;9.10;87.00;;;;;;5010791;28;20065;-75
2023/02/21 10:00:18;;;;;;;24.10;14.18;;;9.10;86.80;;;;;;5037658;28;20139;-74
2023/02/21 10:03:07;;;;;;;23.00;13.85;;;9.10;86.60;;;;;;5035647;28;20041;-73
2023/02/21 10:05:47;;;;;;;21.17;13.95;;;9.10;87.00;;;;;;5021220;28;20779;-73
2023/02/21 10:08:29;;;;;;;22.02;14.27;;;9.10;86.90;;;;;;5040133;28;20065;-74
2023/02/21 10:11:06;;;;;;;22.85;14.15;;;9.10;87.10;;;;;;5026196;28;20544;-74
2023/02/21 10:13:40;;;;;;;24.85;16.50;;;9.10;87.10;;;;;;5042680;28;20033;-73
2023/02/21 10:16:44;;;;;;;23.80;15.68;;;9.20;87.00;;;;;;5026338;28;20040;-75
2023/02/21 10:19:32;;;;;;;28.35;18.13;;;9.20;86.90;;;;;;5027618;28;20039;-75
2023/02/21 10:22:01;;;;;;;23.10;16.08;;;9.20;87.00;;;;;;5042574;28;20037;-74
2023/02/21 10:24:27;;;;;;;24.77;17.55;;;9.30;86.80;;;;;;5043551;28;20029;-75
2023/02/21 10:27:06;;;;;;;24.30;17.13;;;9.40;86.40;;;;;;5043097;28;20040;-74
2023/02/21 10:30:05;;;;;;;25.33;16.75;;;9.40;86.30;;;;;;5036375;28;20052;-74
2023/02/21 10:32:32;;;;;;;25.42;16.42;;;9.50;86.40;;;;;;5042048;28;20043;-74
2023/02/21 10:34:58;;;;;;;27.25;17.92;;;9.60;86.00;;;;;;5046785;28;20116;-74
2023/02/21 10:37:40;;;;;;;25.38;17.20;;;9.60;86.00;;;;;;5046008;28;20040;-75
2023/02/21 10:40:21;;;;;;;28.25;19.48;;;9.60;86.10;;;;;;5046429;28;20051;-74
2023/02/21 10:42:53;;;;;;;22.48;16.05;;;9.60;85.90;;;;;;5045842;28;20120;-73
2023/02/21 10:45:29;;;;;;;29.35;18.52;;;9.60;86.10;;;;;;5045143;28;20202;-73
2023/02/21 10:47:59;;;;;;;26.92;19.00;;;9.70;85.50;;;;;;5044886;28;20538;-73
2023/02/21 10:50:39;;;;;;;26.40;18.55;;;9.60;85.90;;;;;;5033641;28;20017;-74
2023/02/21 10:53:07;;;;;;;25.63;17.67;;;9.60;85.70;;;;;;5042286;28;20537;-74
2023/02/21 10:55:33;;;;;;;26.02;18.40;;;9.70;85.60;;;;;;5040218;28;20025;-75
2023/02/21 10:58:07;;;;;;;22.50;15.82;;;9.70;85.70;;;;;;5042720;28;20029;-74
2023/02/21 11:00:36;;;;;;;23.33;16.70;;;9.70;85.50;;;;;;5040993;28;20118;-75
2023/02/21 11:03:05;;;;;;;24.23;17.05;;;9.70;85.10;;;;;;5040866;28;20029;-75
2023/02/21 11:05:31;;;;;;;23.40;16.20;;;9.80;85.10;;;;;;5043728;28;20040;-75
2023/02/21 11:08:08;;;;;;;22.88;15.93;;;9.80;85.00;;;;;;5042385;28;20041;-75
2023/02/21 11:10:40;;;;;;;21.67;14.25;;;9.80;84.90;;;;;;5041554;28;20082;-76
2023/02/21 11:13:22;;;;;;;20.48;15.45;;;9.90;84.70;;;;;;5037007;28;20044;-76
2023/02/21 11:15:48;;;;;;;21.77;15.00;;;9.90;84.30;;;;;;5037682;28;20120;-73
2023/02/21 11:18:22;;;;;;;19.02;14.10;;;10.00;84.10;;;;;;5040017;28;20489;-73
2023/02/21 11:20:48;;;;;;;17.42;13.25;;;10.10;83.80;;;;;;5038159;28;20037;-72
2023/02/21 11:23:32;;;;;;;18.30;13.95;;;10.10;83.70;;;;;;5038906;28;20079;-75
2023/02/21 11:26:08;;;;;;;18.33;13.05;;;10.10;83.00;;;;;;5037705;28;20049;-75
2023/02/21 11:28:42;;;;;;;19.35;13.77;;;10.20;83.40;;;;;;5043232;28;20078;-75
2023/02/21 11:31:15;;;;;;;17.67;12.88;;;10.20;82.60;;;;;;5041550;28;20060;-74
2023/02/21 11:33:51;;;;;;;18.25;13.57;;;10.20;82.50;;;;;;5040488;28;20050;-72
2023/02/21 11:36:25;;;;;;;18.00;13.77;;;10.10;82.30;;;;;;5024780;28;20451;-76
2023/02/21 11:39:32;;;;;;;17.33;12.95;;;10.20;82.50;;;;;;5038162;28;20465;-76
2023/02/21 11:42:03;;;;;;;18.88;14.30;;;10.10;82.20;;;;;;4939947;28;20071;-74
2023/02/21 11:44:38;;;;;;;18.98;14.40;;;10.10;82.20;;;;;;5012184;28;20070;-73
2023/02/21 11:47:27;;;;;;;18.67;13.93;;;10.10;82.50;;;;;;5040226;28;20045;-74
2023/02/21 11:50:22;;;;;;;18.77;13.80;;;10.00;82.30;;;;;;5025938;28;20029;-76
2023/02/21 11:53:17;;;;;;;24.08;15.90;;;10.10;82.20;;;;;;5038022;28;20114;-74
2023/02/21 11:56:02;;;;;;;21.23;15.35;;;10.10;82.60;;;;;;5025173;28;20431;-73
2023/02/21 11:58:33;;;;;;;;;;;10.10;82.40;;;;;;5040047;28;20100;-73
2023/02/21 12:01:18;;;;;;;22.20;15.80;;;10.10;82.40;;;;;;5040062;28;19935;-75
2023/02/21 12:04:09;;;;;;;23.13;16.85;;;10.10;82.30;;;;;;5041029;28;20032;-74
2023/02/21 12:06:53;;;;;;;22.13;16.27;;;10.10;82.40;;;;;;5042592;28;20076;-76
2023/02/21 12:09:37;;;;;;;22.38;16.75;;;10.10;82.40;;;;;;5042483;28;20033;-73
2023/02/21 12:12:13;;;;;;;24.70;17.73;;;10.10;82.30;;;;;;5024694;28;20097;-75
2023/02/21 12:14:53;;;;;;;21.20;16.73;;;10.10;82.30;;;;;;5040334;28;20025;-75
2023/02/21 12:17:31;;;;;;;21.70;16.95;;;10.10;82.10;;;;;;5040408;28;20481;-73
2023/02/21 12:20:23;;;;;;;26.13;17.08;;;10.20;82.60;;;;;;5040383;28;20581;-73
2023/02/21 12:23:13;;;;;;;22.55;17.55;;;10.40;82.40;;;;;;5040403;28;20045;-74
2023/02/21 12:25:50;;;;;;;21.15;17.13;;;10.40;82.00;;;;;;5023642;28;20043;-74
2023/02/21 12:28:22;;;;;;;19.08;14.98;;;10.40;81.80;;;;;;5042628;28;20512;-76
2023/02/21 12:31:21;;;;;;;18.23;14.48;;;10.40;81.50;;;;;;5020945;28;20480;-73
2023/02/21 12:34:11;;;;;;;22.50;15.70;;;10.40;81.50;;;;;;5041627;28;20516;-72
2023/02/21 12:36:58;;;;;;;23.85;16.73;;;10.40;81.80;;;;;;5039261;28;20457;-74
2023/02/21 12:39:27;;;;;;;21.75;17.20;;;10.40;81.60;;;;;;5041221;28;20025;-73
2023/02/21 12:42:23;;;;;;;21.65;16.83;;;10.40;81.80;;;;;;5036734;28;20041;-75
2023/02/21 12:45:25;;;;;;;22.75;17.38;;;10.40;81.70;;;;;;5039290;28;20025;-73
2023/02/21 12:48:04;;;;;;;20.35;17.13;;;10.40;81.70;;;;;;5023174;28;20444;-77
2023/02/21 12:50:35;;;;;;;24.45;17.98;;;10.50;81.70;;;;;;5039349;28;20029;-74
2023/02/21 12:53:38;;;;;;;23.05;16.85;;;10.40;81.20;;;;;;5033669;28;20076;-76
2023/02/21 12:56:33;;;;;;;21.58;16.48;;;10.50;81.00;;;;;;5008269;28;20140;-75
2023/02/21 12:59:05;;;;;;;21.38;16.45;;;10.50;80.70;;;;;;5023082;28;20234;-74
2023/02/21 13:01:35;;;;;;;21.48;16.80;;;10.30;81.10;;;;;;5034306;28;20072;-75
2023/02/21 13:04:25;;;;;;;22.85;17.10;;;10.40;81.30;;;;;;5032609;28;20028;-74
2023/02/21 13:06:59;;;;;;;21.67;17.15;;;10.50;80.70;;;;;;5036168;28;20051;-75
2023/02/21 13:09:42;;;;;;;23.45;17.55;;;10.60;81.00;;;;;;5037370;28;20128;-73
2023/02/21 13:12:30;;;;;;;23.95;18.20;;;10.60;80.60;;;;;;5034552;28;20041;-73
2023/02/21 13:15:23;;;;;;;24.10;18.33;;;10.70;80.50;;;;;;5036132;28;20025;-74
2023/02/21 13:17:57;;;;;;;22.27;17.42;;;10.60;80.70;;;;;;5029024;28;20053;-75
2023/02/21 13:20:24;;;;;;;;;;;10.60;80.60;;;;;;5037509;28;20034;-74
2023/02/21 13:26:21;;;;;;;22.17;16.17;;;10.70;80.80;;;;;;5036443;28;20103;-74
2023/02/21 13:28:54;;;;;;;23.70;17.40;;;10.60;81.00;;;;;;5024827;28;20056;-74
2023/02/21 13:31:26;;;;;;;22.58;15.98;;;10.50;81.00;;;;;;5023167;28;20124;-76
2023/02/21 13:33:56;;;;;;;25.35;17.27;;;10.40;81.70;;;;;;5039295;28;20067;-75
2023/02/21 13:36:32;;;;;;;25.20;18.38;;;10.40;81.80;;;;;;5037965;28;20048;-74
2023/02/21 13:39:10;;;;;;;23.20;17.17;;;10.40;81.90;;;;;;5038439;28;20381;-76
2023/02/21 13:41:42;;;;;;;24.50;17.70;;;10.50;81.70;;;;;;5038573;28;20040;-73
2023/02/21 13:44:12;;;;;;;27.42;17.33;;;10.40;81.80;;;;;;5039266;28;20029;-75
2023/02/21 13:46:37;;;;;;;23.10;16.98;;;10.50;82.20;;;;;;5038562;28;20485;-74
2023/02/21 13:49:37;;;;;;;23.00;16.30;;;10.40;81.80;;;;;;5041808;28;20067;-74
2023/02/21 13:52:30;;;;;;;20.35;15.48;;;10.40;81.90;;;;;;5038751;28;20136;-75
2023/02/21 13:55:15;;;;;;;20.58;15.65;;;10.40;81.90;;;;;;5035684;28;20052;-75
2023/02/21 13:57:48;;;;;;;20.20;14.93;;;10.20;82.20;;;;;;5019510;28;20091;-77
2023/02/21 14:00:22;;;;;;;22.23;15.60;;;10.30;82.20;;;;;;5020394;28;20115;-75
2023/02/21 14:03:05;;;;;;;23.88;17.77;;;10.30;82.60;;;;;;5039029;28;20041;-76
2023/02/21 14:05:46;;;;;;;24.33;16.85;;;10.30;82.60;;;;;;5039037;28;20124;-75
2023/02/21 14:08:31;;;;;;;23.50;16.85;;;10.20;82.50;;;;;;5020588;28;21193;-76
2023/02/21 14:11:06;;;;;;;23.80;17.13;;;10.10;82.80;;;;;;5035684;28;20143;-75
2023/02/21 14:13:31;;;;;;;21.70;16.38;;;10.10;83.20;;;;;;5039328;28;20033;-74
2023/02/21 14:16:08;;;;;;;23.88;17.20;;;10.20;83.10;;;;;;5038099;28;20124;-75
2023/02/21 14:18:43;;;;;;;25.13;16.95;;;10.20;83.00;;;;;;5035065;28;20171;-78
2023/02/21 14:21:23;;;;;;;25.40;17.30;;;10.30;82.70;;;;;;5039442;28;20041;-74
2023/02/21 14:23:58;;;;;;;22.75;16.83;;;10.20;82.70;;;;;;5042264;28;20040;-76
2023/02/21 14:26:44;;;;;;;24.20;18.85;;;10.30;82.90;;;;;;5040471;28;21039;-73
2023/02/21 14:29:30;;;;;;;25.45;17.60;;;10.20;82.80;;;;;;5038832;28;20054;-74
2023/02/21 14:32:02;;;;;;;27.05;19.10;;;10.20;82.90;;;;;;5037127;28;20025;-77
2023/02/21 14:34:54;;;;;;;25.02;18.90;;;10.10;82.90;;;;;;5041134;28;20053;-77
2023/02/21 14:37:39;;;;;;;27.95;20.92;;;10.20;83.20;;;;;;5038910;28;20037;-73
2023/02/21 14:40:18;;;;;;;24.58;17.70;;;10.10;83.40;;;;;;5037414;28;20021;-74
2023/02/21 14:43:02;;;;;;;28.52;18.88;;;10.10;83.90;;;;;;5039794;28;20037;-74
2023/02/21 14:45:59;;;;;;;24.60;18.52;;;10.10;83.20;;;;;;5035045;28;20037;-74
2023/02/21 14:48:46;;;;;;;25.65;17.55;;;10.00;83.30;;;;;;5039274;28;20479;-73
2023/02/21 14:51:17;;;;;;;26.20;18.00;;;10.00;83.70;;;;;;5021533;28;20029;-74
2023/02/21 14:54:02;;;;;;;24.33;17.42;;;9.80;84.00;;;;;;5039286;28;20029;-73
2023/02/21 14:56:55;;;;;;;26.42;18.05;;;9.90;83.90;;;;;;5044848;28;20140;-74
2023/02/21 14:59:52;;;;;;;26.80;16.75;;;9.80;84.10;;;;;;5043121;28;20032;-74
2023/02/21 15:02:26;;;;;;;26.60;18.60;;;9.80;84.20;;;;;;5043723;28;20033;-74
2023/02/21 15:05:13;;;;;;;28.58;19.70;;;9.70;84.30;;;;;;5043669;28;20043;-76
2023/02/21 15:07:54;;;;;;;30.65;18.80;;;9.70;84.20;;;;;;5043651;28;20045;-76
2023/02/21 15:10:20;;;;;;;26.48;18.80;;;9.70;84.50;;;;;;5040500;28;20029;-76
2023/02/21 15:12:52;;;;;;;25.00;17.88;;;9.70;84.60;;;;;;5040507;28;20191;-76
2023/02/21 15:15:31;;;;;;;26.40;18.35;;;9.70;84.60;;;;;;5042372;28;20055;-74
2023/02/21 15:18:06;;;;;;;24.23;17.77;;;9.70;84.60;;;;;;5042122;28;20390;-75
2023/02/21 15:20:35;;;;;;;27.20;18.98;;;9.70;84.60;;;;;;5037439;28;20049;-74